Time;durP1;ratioP1;P1;durP2;ratioP2;P2;SDS_P1;SDS_P2;PMS_P1;PMS_P2;Temp;Humidity;BMP_temperature;BMP_pressure;BME280_temperature;BME280_humidity;BME280_pressure;Samples;Min_cycle;Max_cycle;Signal;HPM_P1;HPM_P2
2022/08/06 00:02:01;;;;;;;2.05;1.35;;;11.80;99.90;;;-144.05;71.94;125687.94;4940742;29;20035;-88
2022/08/06 00:04:27;;;;;;;3.63;1.70;;;11.80;99.90;;;-144.05;72.04;125687.94;4940994;29;20027;-87
2022/08/06 00:06:53;;;;;;;4.20;1.52;;;11.70;99.90;;;-144.05;72.44;125687.94;4941208;29;20095;-87
2022/08/06 00:09:19;;;;;;;3.22;1.42;;;11.70;99.90;;;-144.05;72.85;125687.94;4941389;29;20046;-88
2022/08/06 00:11:45;;;;;;;8.95;1.90;;;11.70;99.90;;;-144.05;73.40;125687.94;4940655;29;20038;-87
2022/08/06 00:14:11;;;;;;;1.63;1.52;;;11.60;99.90;;;-144.05;73.23;125687.94;4967255;28;20119;-87
2022/08/06 00:16:37;;;;;;;2.88;1.60;;;11.60;99.90;;;-144.05;73.75;125687.94;4963090;28;20047;-87
2022/08/06 00:19:03;;;;;;;3.53;1.67;;;11.60;99.90;;;-144.05;74.19;125687.94;4953862;29;20043;-88
2022/08/06 00:21:29;;;;;;;3.28;1.90;;;11.60;99.90;;;-144.05;74.27;125687.94;4941588;29;20094;-90
2022/08/06 00:23:55;;;;;;;4.35;2.13;;;11.60;99.90;;;-144.05;74.67;125687.94;4940511;29;20035;-88
2022/08/06 00:26:21;;;;;;;3.05;1.85;;;11.50;99.90;;;-144.05;74.46;125687.94;4940665;29;20031;-89
2022/08/06 00:28:47;;;;;;;5.57;2.20;;;11.50;99.90;;;-144.05;74.46;125687.94;4957003;29;20044;-90
2022/08/06 00:31:13;;;;;;;6.10;2.28;;;11.50;99.90;;;-144.05;74.34;125687.94;4938356;29;20027;-89
2022/08/06 00:33:41;;;;;;;3.45;1.80;;;11.60;99.90;;;-144.05;74.51;125687.94;4939177;29;20054;-89
2022/08/06 00:36:08;;;;;;;4.90;2.20;;;11.60;99.90;;;-144.05;74.49;125687.94;4939277;29;20082;-88
2022/08/06 00:38:35;;;;;;;3.97;1.95;;;11.60;99.90;;;-144.05;74.62;125687.94;4939567;29;20133;-87
2022/08/06 00:41:03;;;;;;;4.85;2.03;;;11.60;99.90;;;-144.05;74.55;125687.94;4939525;29;20098;-88
2022/08/06 00:43:29;;;;;;;7.65;1.80;;;11.50;99.90;;;-144.05;74.32;125687.94;4956400;29;20042;-88
2022/08/06 00:45:56;;;;;;;2.78;1.50;;;11.50;99.90;;;-144.05;74.32;125687.94;4956236;28;20034;-88
2022/08/06 00:48:22;;;;;;;4.30;1.90;;;11.50;99.90;;;-144.05;74.31;125687.94;4938251;29;20082;-87
2022/08/06 00:50:48;;;;;;;3.17;1.77;;;11.40;99.90;;;-144.05;74.56;125687.94;4938379;29;20035;-88
2022/08/06 00:53:14;;;;;;;5.15;2.17;;;11.40;99.90;;;-144.05;74.88;125687.94;4941087;29;20031;-87
2022/08/06 00:55:40;;;;;;;4.30;1.98;;;11.40;99.90;;;-144.05;74.83;125687.94;4947282;29;20098;-90
2022/08/06 00:58:07;;;;;;;3.03;1.95;;;11.40;99.90;;;-144.05;74.81;125687.94;4940187;29;20468;-91
2022/08/06 01:00:35;;;;;;;3.67;2.00;;;11.40;99.90;;;-144.05;74.91;125687.94;4939611;29;20114;-90
2022/08/06 01:03:01;;;;;;;3.33;1.50;;;11.40;99.90;;;-144.05;74.90;125687.94;4939446;29;20039;-89
2022/08/06 01:05:27;;;;;;;4.13;1.90;;;11.30;99.90;;;-144.05;75.02;125687.94;4939062;29;20039;-89
2022/08/06 01:07:54;;;;;;;2.95;1.73;;;11.30;99.90;;;-144.05;74.82;125687.94;4939291;29;20043;-90
2022/08/06 01:10:22;;;;;;;3.05;1.73;;;11.20;99.90;;;-144.05;74.82;125687.94;4939317;29;20027;-89
2022/08/06 01:12:49;;;;;;;3.92;1.55;;;11.20;99.90;;;-144.05;75.10;125687.94;4938949;29;20049;-89
2022/08/06 01:15:15;;;;;;;2.63;1.90;;;11.10;99.90;;;-144.05;75.70;125687.94;4955922;29;20086;-90
2022/08/06 01:18:16;;;;;;;3.00;1.80;;;11.10;99.90;;;-144.05;75.72;125687.94;4938907;29;20039;-90
2022/08/06 01:21:37;;;;;;;3.40;1.75;;;11.10;99.90;;;-144.05;75.65;125687.94;4938712;29;20058;-90
2022/08/06 01:24:48;;;;;;;4.20;1.70;;;11.10;99.90;;;-144.05;76.22;125687.94;4957273;29;20054;-88
2022/08/06 01:27:42;;;;;;;4.28;1.98;;;11.10;99.90;;;-144.05;76.35;125687.94;4940234;29;20039;-88
2022/08/06 01:30:17;;;;;;;3.13;1.95;;;11.10;99.90;;;-144.05;76.41;125687.94;4940372;29;20047;-90
2022/08/06 01:36:53;;;;;;;3.45;1.95;;;11.10;99.90;;;-144.05;76.05;125687.94;4919517;29;20055;-89
2022/08/06 01:39:25;;;;;;;5.53;2.22;;;11.10;99.90;;;-144.05;76.25;125687.94;4941111;29;20035;-88
2022/08/06 01:41:55;;;;;;;4.20;2.35;;;11.00;99.90;;;-144.05;76.15;125687.94;4941130;29;20374;-89
2022/08/06 01:44:30;;;;;;;5.80;1.98;;;11.00;99.90;;;-144.05;76.23;125687.94;4942383;29;20028;-91
2022/08/06 01:47:05;;;;;;;2.35;1.88;;;10.90;99.90;;;-144.05;76.68;125687.94;4959380;29;20035;-88
2022/08/06 01:49:37;;;;;;;6.68;2.17;;;10.80;99.90;;;-144.05;76.72;125687.94;4942985;29;20477;-89
2022/08/06 01:52:07;;;;;;;2.95;2.08;;;10.80;99.90;;;-144.05;76.62;125687.94;4944264;29;20035;-89
2022/08/06 01:54:45;;;;;;;2.60;1.77;;;10.70;99.90;;;-144.05;77.21;125687.94;4945972;29;20031;-88
2022/08/06 01:57:18;;;;;;;3.35;2.20;;;10.60;99.90;;;-144.05;77.46;125687.94;4948715;29;20093;-87
2022/08/06 01:59:53;;;;;;;4.90;2.30;;;10.60;99.90;;;-144.05;77.63;125687.94;4940534;29;20035;-89
2022/08/06 02:02:28;;;;;;;4.72;2.47;;;10.60;99.90;;;-144.05;77.64;125687.94;4938922;29;20501;-89
2022/08/06 02:05:00;;;;;;;5.78;2.42;;;10.40;99.90;;;-144.05;77.66;125687.94;4938462;29;20483;-89
2022/08/06 02:07:36;;;;;;;1.92;1.73;;;10.30;99.90;;;-144.05;77.64;125687.94;4938793;29;20489;-90
2022/08/06 02:10:08;;;;;;;4.80;2.20;;;10.30;99.90;;;-144.05;77.71;125687.94;4956118;29;20030;-88
2022/08/06 02:12:38;;;;;;;3.95;2.15;;;10.30;99.90;;;-144.05;78.25;125687.94;4955657;29;20054;-89
2022/08/06 02:15:28;;;;;;;2.80;2.05;;;10.30;99.90;;;-144.05;78.99;125687.94;4938292;29;20035;-91
2022/08/06 02:18:03;;;;;;;4.60;2.50;;;10.30;99.90;;;-144.05;78.76;125687.94;4938782;29;20035;-88
2022/08/06 02:20:38;;;;;;;5.30;2.20;;;10.40;99.90;;;-144.05;78.75;125687.94;4938281;29;20043;-90
2022/08/06 02:23:13;;;;;;;6.82;2.80;;;10.40;99.90;;;-144.05;79.01;125687.94;4938137;29;20042;-89
2022/08/06 02:25:43;;;;;;;4.93;2.72;;;10.40;99.90;;;-144.05;78.78;125687.94;4937452;29;20116;-90
2022/08/06 02:28:18;;;;;;;4.15;2.75;;;10.50;99.90;;;-144.05;79.07;125687.94;4937531;29;20035;-91
2022/08/06 02:30:51;;;;;;;4.43;2.25;;;10.50;99.90;;;-144.05;79.23;125687.94;4938849;29;20046;-89
2022/08/06 02:33:18;;;;;;;2.40;2.20;;;10.50;99.90;;;-144.05;79.13;125687.94;4937438;29;20035;-90
2022/08/06 02:36:16;;;;;;;8.20;3.38;;;10.40;99.90;;;-144.05;79.21;125687.94;4937332;29;20036;-90
2022/08/06 02:39:16;;;;;;;5.38;2.75;;;10.50;99.90;;;-144.05;79.40;125687.94;4936842;29;20553;-89
2022/08/06 02:42:01;;;;;;;3.67;2.60;;;10.50;99.90;;;-144.05;79.19;125687.94;4937119;29;20063;-90
2022/08/06 02:45:12;;;;;;;6.15;2.10;;;10.40;99.90;;;-144.05;79.14;125687.94;4937325;29;20035;-89
2022/08/06 02:48:18;;;;;;;2.58;2.15;;;10.40;99.90;;;-144.05;79.28;125687.94;4934607;29;20190;-89
2022/08/06 02:50:51;;;;;;;5.88;2.42;;;10.30;99.90;;;-144.05;79.52;125687.94;4938359;29;20359;-88
2022/08/06 02:53:31;;;;;;;2.72;1.80;;;10.30;99.90;;;-144.05;79.74;125687.94;4938999;29;20027;-90
2022/08/06 02:56:09;;;;;;;7.22;2.70;;;10.30;99.90;;;-144.05;79.77;125687.94;4941189;29;20027;-89
2022/08/06 02:58:52;;;;;;;5.35;2.33;;;10.30;99.90;;;-144.05;79.92;125687.94;4941007;29;20536;-90
2022/08/06 03:01:29;;;;;;;4.35;2.35;;;10.20;99.90;;;-144.05;79.87;125687.94;4942740;29;20035;-87
2022/08/06 03:04:00;;;;;;;1.80;1.70;;;10.30;99.90;;;-144.05;80.29;125687.94;4949155;28;20038;-88
2022/08/06 03:06:33;;;;;;;5.38;2.60;;;10.20;99.90;;;-144.05;80.09;125687.94;4960297;29;20042;-88
2022/08/06 03:09:05;;;;;;;3.15;2.40;;;10.20;99.90;;;-144.05;79.97;125687.94;4942437;29;20027;-88
2022/08/06 03:11:34;;;;;;;6.40;2.80;;;10.20;99.90;;;-144.05;80.02;125687.94;4941871;29;20023;-89
2022/08/06 03:14:04;;;;;;;3.85;2.67;;;10.20;99.90;;;-144.05;80.04;125687.94;4941697;29;20039;-90
2022/08/06 03:16:37;;;;;;;4.90;3.00;;;10.20;99.90;;;-144.05;80.19;125687.94;4941722;29;20027;-89
2022/08/06 03:19:06;;;;;;;3.60;2.78;;;10.10;99.90;;;-144.05;80.82;125687.94;4941927;29;20478;-89
2022/08/06 03:21:35;;;;;;;3.65;2.45;;;10.10;99.90;;;-144.05;80.73;125687.94;4941776;29;20114;-91
2022/08/06 03:24:05;;;;;;;4.57;2.80;;;10.10;99.90;;;-144.05;80.67;125687.94;4941872;29;20034;-89
2022/08/06 03:26:35;;;;;;;6.05;3.17;;;10.10;99.90;;;-144.05;80.61;125687.94;4941701;29;20062;-89
2022/08/06 03:29:04;;;;;;;6.85;2.58;;;10.10;99.90;;;-144.05;80.52;125687.94;4941376;29;20035;-90
2022/08/06 03:31:32;;;;;;;4.22;2.60;;;10.00;99.90;;;-144.05;80.96;125687.94;4941981;29;20106;-89
2022/08/06 03:34:00;;;;;;;6.35;3.05;;;10.00;99.90;;;-144.05;80.85;125687.94;4943060;29;20031;-88
2022/08/06 03:36:28;;;;;;;4.50;2.35;;;10.00;99.90;;;-144.05;80.85;125687.94;4942820;29;20070;-88
2022/08/06 03:39:05;;;;;;;8.93;2.80;;;10.00;99.90;;;-144.05;80.79;125687.94;4943125;29;20037;-89
2022/08/06 03:41:38;;;;;;;3.42;2.35;;;9.90;99.90;;;-144.05;81.12;125687.94;4942810;29;20032;-89
2022/08/06 03:44:05;;;;;;;4.72;2.92;;;9.90;99.90;;;-144.05;80.96;125687.94;4943596;29;20027;-89
2022/08/06 03:46:44;;;;;;;5.15;2.38;;;9.80;99.90;;;-144.05;81.14;125687.94;4944019;29;20031;-91
2022/08/06 03:49:25;;;;;;;3.45;2.80;;;9.80;99.90;;;-144.05;81.17;125687.94;4943547;29;20505;-88
2022/08/06 03:51:58;;;;;;;3.97;2.80;;;9.80;99.90;;;-144.05;81.15;125687.94;4944723;29;20031;-89
2022/08/06 03:54:38;;;;;;;3.58;2.90;;;9.70;99.90;;;-144.05;81.20;125687.94;4944079;29;20051;-88
2022/08/06 03:57:14;;;;;;;4.65;2.70;;;9.70;99.90;;;-144.05;81.27;125687.94;4944737;29;20031;-90
2022/08/06 03:59:46;;;;;;;3.50;2.50;;;9.70;99.90;;;-144.05;81.24;125687.94;4946984;29;20039;-89
2022/08/06 04:02:16;;;;;;;3.97;2.90;;;9.70;99.90;;;-144.05;81.12;125687.94;4949783;29;20064;-90
2022/08/06 04:04:46;;;;;;;3.17;2.40;;;9.70;99.90;;;-144.05;81.29;125687.94;4946457;29;20027;-90
2022/08/06 04:07:15;;;;;;;4.95;2.40;;;9.60;99.90;;;-144.05;81.31;125687.94;4948666;29;20577;-90
2022/08/06 04:09:44;;;;;;;6.60;3.00;;;9.60;99.90;;;-144.05;80.89;125687.94;4949604;29;20126;-89
2022/08/06 04:12:14;;;;;;;6.70;3.20;;;9.60;99.90;;;-144.05;80.57;125687.94;4966788;29;20043;-89
2022/08/06 04:14:40;;;;;;;4.28;2.88;;;9.60;99.90;;;-144.05;80.67;125687.94;4952702;29;20103;-89
2022/08/06 04:17:09;;;;;;;4.13;3.10;;;9.60;99.90;;;-144.05;80.74;125687.94;4943722;29;20118;-89
2022/08/06 04:19:37;;;;;;;4.60;2.67;;;9.50;99.90;;;-144.05;80.72;125687.94;4953094;28;20099;-90
2022/08/06 04:22:04;;;;;;;4.05;2.88;;;9.50;99.90;;;-144.05;80.97;125687.94;4963091;28;20027;-92
2022/08/06 04:24:31;;;;;;;4.93;3.13;;;9.60;99.90;;;-144.05;80.94;125687.94;4963038;29;20054;-90
2022/08/06 04:27:05;;;;;;;5.50;3.38;;;9.60;99.90;;;-144.05;81.07;125687.94;4950313;29;20053;-89
2022/08/06 04:29:36;;;;;;;4.22;3.63;;;9.70;99.90;;;-144.05;80.97;125687.94;4940770;29;20038;-89
2022/08/06 04:32:06;;;;;;;5.18;3.30;;;9.70;99.90;;;-144.05;81.06;125687.94;4940867;29;20445;-89
2022/08/06 04:34:36;;;;;;;3.53;2.60;;;9.80;99.90;;;-144.05;81.22;125687.94;4940531;29;20027;-89
2022/08/06 04:37:02;;;;;;;4.03;3.50;;;9.80;99.90;;;-144.05;81.27;125687.94;4951600;29;20035;-91
2022/08/06 04:39:32;;;;;;;7.10;3.67;;;9.80;99.90;;;-144.05;81.18;125687.94;4963058;28;20043;-92
2022/08/06 04:41:58;;;;;;;5.65;3.30;;;9.80;99.90;;;-144.05;81.31;125687.94;4952024;29;20039;-90
2022/08/06 04:44:27;;;;;;;7.70;3.80;;;9.80;99.90;;;-144.05;81.07;125687.94;4940606;29;20027;-89
2022/08/06 04:46:57;;;;;;;5.32;3.85;;;9.90;99.90;;;-144.05;81.36;125687.94;4956974;29;20173;-89
2022/08/06 04:49:23;;;;;;;5.68;3.13;;;9.90;99.90;;;-144.05;81.57;125687.94;4942142;29;20035;-90
2022/08/06 04:51:49;;;;;;;5.85;4.03;;;10.00;99.90;;;-144.05;81.53;125687.94;4941764;29;20131;-89
2022/08/06 04:54:16;;;;;;;4.82;3.65;;;10.00;99.90;;;-144.05;81.32;125687.94;4940234;29;20066;-91
2022/08/06 04:56:43;;;;;;;5.68;3.95;;;10.10;99.90;;;-144.05;81.19;125687.94;4941005;29;20031;-89
2022/08/06 04:59:10;;;;;;;8.90;4.10;;;10.10;99.90;;;-144.05;81.41;125687.94;4942111;29;20047;-90
2022/08/06 05:01:37;;;;;;;5.30;4.18;;;10.20;99.90;;;-144.05;81.56;125687.94;4942955;29;20032;-90
2022/08/06 05:04:05;;;;;;;4.20;3.80;;;10.20;99.90;;;-144.05;81.33;125687.94;4949707;29;20023;-90
2022/08/06 05:06:52;;;;;;;4.63;3.45;;;10.30;99.90;;;-144.05;81.61;125687.94;4940637;29;20481;-89
2022/08/06 05:09:25;;;;;;;8.57;4.60;;;10.40;99.90;;;-144.05;81.82;125687.94;4944333;29;20035;-89
2022/08/06 05:12:29;;;;;;;6.30;5.10;;;10.50;99.90;;;-144.05;81.84;125687.94;4952153;29;20055;-90
2022/08/06 05:15:21;;;;;;;8.55;5.90;;;10.60;99.90;;;-144.05;82.00;125687.94;4938945;29;20043;-89
2022/08/06 05:17:57;;;;;;;8.43;5.20;;;10.80;99.90;;;-144.05;81.99;125687.94;4950173;29;20054;-88
2022/08/06 05:20:28;;;;;;;8.13;5.15;;;11.10;99.90;;;-144.05;81.66;125687.94;4953901;29;20027;-89
2022/08/06 05:23:04;;;;;;;6.32;4.40;;;11.30;99.90;;;-144.05;81.11;125687.94;4949388;28;20023;-90
2022/08/06 05:25:36;;;;;;;6.07;4.28;;;11.60;99.90;;;-144.05;80.82;125687.94;4953764;29;20054;-92
2022/08/06 05:28:05;;;;;;;6.88;3.70;;;11.80;99.90;;;-144.05;80.45;125687.94;4958473;28;20057;-90
2022/08/06 05:30:32;;;;;;;5.93;3.42;;;12.00;99.90;;;-144.05;79.46;125687.94;4958885;29;20034;-89
2022/08/06 05:33:00;;;;;;;4.13;3.13;;;12.20;99.90;;;-144.05;79.01;125687.94;4941493;29;20500;-90
2022/08/06 05:35:26;;;;;;;3.95;2.70;;;12.40;99.90;;;-144.05;78.35;125687.94;4942208;29;20023;-88
2022/08/06 05:37:52;;;;;;;6.55;2.60;;;12.60;99.90;;;-144.05;77.31;125687.94;4943369;29;20037;-90
2022/08/06 05:40:18;;;;;;;4.03;2.78;;;12.90;99.90;;;-144.05;76.60;125687.94;4941320;29;20104;-88
2022/08/06 05:42:44;;;;;;;5.95;2.75;;;13.10;99.90;;;-144.05;74.88;125687.94;4941721;29;20149;-91
2022/08/06 05:45:19;;;;;;;5.82;2.65;;;13.40;99.90;;;-144.05;72.98;125687.94;4942460;29;20057;-90
2022/08/06 05:47:47;;;;;;;7.25;2.83;;;13.60;99.90;;;-144.05;71.21;125687.94;4942564;29;20035;-91
2022/08/06 05:50:26;;;;;;;4.10;2.35;;;14.00;99.90;;;-144.05;69.35;125687.94;4942164;29;20051;-91
2022/08/06 05:53:12;;;;;;;2.58;1.98;;;14.30;99.90;;;-144.05;67.63;125687.94;4943036;29;20485;-89
2022/08/06 05:56:12;;;;;;;4.30;1.90;;;14.70;99.90;;;-144.05;65.95;125687.94;4942043;29;20039;-89
2022/08/06 05:59:04;;;;;;;3.60;1.80;;;15.00;99.90;;;-144.05;64.27;125687.94;4942261;29;20027;-89
2022/08/06 06:01:35;;;;;;;4.82;2.25;;;15.40;99.90;;;-144.05;62.86;125687.94;4941377;29;20035;-88
2022/08/06 06:04:03;;;;;;;6.35;2.10;;;15.70;99.90;;;-144.05;60.55;125687.94;4944399;29;20050;-90
2022/08/06 06:06:31;;;;;;;4.07;1.95;;;16.00;99.90;;;-144.05;59.44;125687.94;4944205;29;20038;-88
2022/08/06 06:08:57;;;;;;;5.22;2.30;;;16.20;99.90;;;-144.05;58.33;125687.94;4944989;29;20047;-89
2022/08/06 06:11:25;;;;;;;6.78;2.28;;;16.40;99.90;;;-144.05;57.93;125687.94;4945348;29;20031;-88
2022/08/06 06:13:54;;;;;;;6.80;2.55;;;16.60;99.90;;;-144.05;57.22;125687.94;4945576;29;20045;-89
2022/08/06 06:16:33;;;;;;;5.03;2.13;;;16.70;99.90;;;-144.05;56.72;125687.94;4944027;29;20039;-90
2022/08/06 06:19:37;;;;;;;2.95;1.40;;;16.80;99.90;;;-144.05;55.89;125687.94;4943667;29;20081;-88
2022/08/06 06:22:35;;;;;;;6.60;1.60;;;17.00;99.90;;;-144.05;55.09;125687.94;4945573;29;20119;-88
2022/08/06 06:25:37;;;;;;;5.80;1.70;;;17.30;99.90;;;-144.05;55.45;125687.94;4947010;29;20502;-89
2022/08/06 06:28:39;;;;;;;4.97;1.33;;;17.40;99.90;;;-144.05;54.75;125687.94;4944848;29;20045;-88
2022/08/06 06:31:46;;;;;;;2.88;1.67;;;17.70;99.90;;;-144.05;53.21;125687.94;4947453;29;20035;-88
2022/08/06 06:34:37;;;;;;;3.67;1.60;;;17.90;99.90;;;-144.05;53.12;125687.94;4946974;29;20041;-89
2022/08/06 06:37:41;;;;;;;3.35;1.30;;;17.90;99.90;;;-144.05;53.12;125687.94;4950150;29;20031;-88
2022/08/06 06:40:28;;;;;;;3.60;1.40;;;18.10;99.90;;;-144.05;52.39;125687.94;4934151;29;20038;-90
2022/08/06 06:43:19;;;;;;;3.53;1.10;;;18.40;99.90;;;-144.05;51.61;125687.94;4948600;29;20031;-88
2022/08/06 06:46:04;;;;;;;4.38;1.25;;;18.80;99.90;;;-144.05;50.03;125687.94;4946872;29;20031;-88
2022/08/06 06:48:45;;;;;;;4.28;1.58;;;19.00;99.90;;;-144.05;49.48;125687.94;4964671;28;20074;-87
2022/08/06 06:51:47;;;;;;;1.83;0.82;;;19.10;99.90;;;-144.05;48.59;125687.94;4948230;29;20083;-88
2022/08/06 06:54:31;;;;;;;4.35;1.00;;;19.40;99.90;;;-144.05;48.35;125687.94;4949361;29;20038;-87
2022/08/06 06:57:01;;;;;;;3.13;1.02;;;19.50;99.90;;;-144.05;47.86;125687.94;4947930;29;20055;-86
2022/08/06 06:59:36;;;;;;;4.75;1.20;;;19.50;99.90;;;-144.05;47.24;125687.94;4948958;29;20094;-86
2022/08/06 07:02:05;;;;;;;3.85;0.90;;;19.50;99.90;;;-144.05;47.52;125687.94;4947074;29;20031;-86
2022/08/06 07:04:36;;;;;;;4.97;1.10;;;19.60;99.90;;;-144.05;47.15;125687.94;4946406;29;20031;-87
2022/08/06 07:07:05;;;;;;;3.65;1.10;;;19.70;99.90;;;-144.05;46.82;125687.94;4947448;29;20031;-87
2022/08/06 07:09:35;;;;;;;4.18;1.02;;;19.90;99.90;;;-144.05;45.97;125687.94;4949353;29;20077;-85
2022/08/06 07:12:04;;;;;;;2.42;0.90;;;20.10;99.90;;;-144.05;46.26;125687.94;4949035;29;20097;-84
2022/08/06 07:14:37;;;;;;;1.67;0.90;;;20.20;99.90;;;-144.05;45.56;125687.94;4946179;29;20039;-84
2022/08/06 07:17:07;;;;;;;4.03;1.20;;;20.20;99.90;;;-144.05;45.11;125687.94;4945498;29;20055;-87
2022/08/06 07:19:35;;;;;;;4.65;1.38;;;20.50;99.90;;;-144.05;44.80;125687.94;4949720;29;20078;-85
2022/08/06 07:22:04;;;;;;;4.05;1.00;;;20.60;99.90;;;-144.05;43.65;125687.94;4959076;29;20027;-87
2022/08/06 07:24:37;;;;;;;5.72;0.82;;;20.60;99.90;;;-144.05;43.89;125687.94;4948870;29;20065;-86
2022/08/06 07:27:06;;;;;;;4.07;1.00;;;20.60;99.90;;;-144.05;43.25;125687.94;4962685;29;20027;-88
2022/08/06 07:29:34;;;;;;;3.38;0.95;;;20.90;99.90;;;-144.05;43.95;125687.94;4947405;29;20121;-88
2022/08/06 07:32:03;;;;;;;4.78;0.90;;;21.00;99.90;;;-144.05;43.46;125687.94;4949206;29;20493;-83
2022/08/06 07:34:30;;;;;;;3.30;0.98;;;21.00;99.90;;;-144.05;42.60;125687.94;4949621;29;20067;-86
2022/08/06 07:36:58;;;;;;;3.83;0.70;;;21.10;99.90;;;-144.05;42.79;125687.94;4947236;29;20054;-87
2022/08/06 07:39:33;;;;;;;1.00;0.60;;;21.00;99.90;;;-144.05;42.31;125687.94;4944917;29;20031;-89
2022/08/06 07:42:07;;;;;;;2.13;0.80;;;21.10;99.90;;;-144.05;42.12;125687.94;4945614;29;20027;-86
2022/08/06 07:44:41;;;;;;;3.17;0.70;;;21.40;99.90;;;-144.05;42.27;125687.94;4945586;29;20035;-87
2022/08/06 07:47:13;;;;;;;2.15;0.60;;;21.00;99.90;;;-144.05;42.55;125687.94;4947119;29;20027;-87
2022/08/06 07:49:46;;;;;;;2.25;1.00;;;20.70;99.90;;;-144.05;42.88;125687.94;4946593;29;20031;-86
2022/08/06 07:52:18;;;;;;;4.38;0.70;;;20.70;99.90;;;-144.05;40.90;125687.94;4964391;29;20128;-85
2022/08/06 07:54:46;;;;;;;1.80;0.40;;;20.70;99.90;;;-144.05;41.62;125687.94;4947568;28;20019;-85
2022/08/06 07:57:16;;;;;;;5.10;0.60;;;20.20;99.90;;;-144.05;42.91;125687.94;4949053;29;20101;-86
2022/08/06 07:59:43;;;;;;;1.10;0.60;;;19.80;99.90;;;-144.05;42.65;125687.94;4965032;29;20445;-87
2022/08/06 08:02:13;;;;;;;0.77;0.40;;;20.10;99.90;;;-144.05;41.82;125687.94;4949486;29;20034;-86
2022/08/06 08:07:28;;;;;;;2.53;1.03;;;21.30;99.90;;;-144.05;39.69;125687.94;4967289;29;20022;-87
2022/08/06 08:09:56;;;;;;;3.72;0.77;;;20.90;99.90;;;-144.05;40.39;125687.94;4949402;29;20504;-87
2022/08/06 08:12:25;;;;;;;4.20;0.80;;;21.40;99.90;;;-144.05;38.51;125687.94;4946763;29;20035;-87
2022/08/06 08:14:53;;;;;;;2.58;0.80;;;21.70;99.90;;;-144.05;38.18;125687.94;4951396;29;20062;-87
2022/08/06 08:17:19;;;;;;;2.85;0.55;;;21.90;99.90;;;-144.05;37.88;125687.94;4948757;29;20122;-88
2022/08/06 08:19:44;;;;;;;1.27;0.40;;;22.30;99.90;;;-144.05;35.67;125687.94;4953095;29;20034;-86
2022/08/06 08:22:18;;;;;;;1.67;0.20;;;22.50;99.90;;;-144.05;35.33;125687.94;4951707;29;20028;-87
2022/08/06 08:24:47;;;;;;;1.83;0.40;;;22.30;98.80;;;-144.05;34.78;125687.94;4954787;29;20039;-89
2022/08/06 08:27:15;;;;;;;3.15;0.52;;;22.80;98.00;;;-144.05;34.20;125687.94;4946960;29;20027;-88
2022/08/06 08:29:42;;;;;;;2.88;0.65;;;22.70;95.60;;;-144.05;34.60;125687.94;4949898;29;20043;-90
2022/08/06 08:32:09;;;;;;;3.08;1.00;;;22.80;96.10;;;-144.05;34.60;125687.94;4950861;28;20034;-89
2022/08/06 08:34:36;;;;;;;3.38;1.50;;;22.90;95.70;;;-144.05;34.49;125687.94;4950487;29;20134;-87
2022/08/06 08:37:05;;;;;;;3.80;1.42;;;22.20;94.50;;;-144.05;36.63;125687.94;4951228;29;20039;-89
2022/08/06 08:39:34;;;;;;;4.38;1.90;;;21.10;97.10;;;-144.05;38.13;125687.94;4947786;29;20058;-88
2022/08/06 08:42:42;;;;;;;3.50;2.22;;;20.50;99.50;;;-144.05;37.83;125687.94;4943710;29;20520;-87
2022/08/06 08:45:11;;;;;;;4.78;2.30;;;20.60;99.90;;;-144.05;38.44;125687.94;4943829;29;20489;-88
2022/08/06 08:47:53;;;;;;;2.40;1.90;;;20.30;99.90;;;-144.05;39.17;125687.94;4950616;29;20346;-86
2022/08/06 08:50:29;;;;;;;5.43;1.67;;;20.00;99.90;;;-144.05;39.46;125687.94;4958910;28;20035;-86
2022/08/06 08:53:11;;;;;;;4.30;1.63;;;19.70;99.90;;;-144.05;39.70;125687.94;4941802;29;20495;-87
2022/08/06 08:55:40;;;;;;;2.78;1.17;;;19.60;99.90;;;-144.05;38.62;125687.94;4943310;29;20047;-87
2022/08/06 08:58:07;;;;;;;2.13;1.23;;;20.20;99.90;;;-144.05;37.75;125687.94;4944822;29;20050;-88
2022/08/06 09:00:41;;;;;;;2.60;1.20;;;20.60;99.90;;;-144.05;37.21;125687.94;4943995;29;20024;-86
2022/08/06 09:03:07;;;;;;;1.95;0.90;;;21.00;99.90;;;-144.05;37.22;125687.94;4973175;28;20118;-87
2022/08/06 09:05:35;;;;;;;3.95;0.88;;;20.70;99.90;;;-144.05;37.99;125687.94;4946590;29;20035;-86
2022/08/06 09:08:03;;;;;;;2.65;1.05;;;20.30;99.90;;;-144.05;39.29;125687.94;4947873;29;20045;-86
2022/08/06 09:10:30;;;;;;;1.58;0.70;;;20.10;99.90;;;-144.05;38.23;125687.94;4947529;29;20040;-87
2022/08/06 09:12:56;;;;;;;2.70;0.93;;;20.50;99.90;;;-144.05;35.87;125687.94;4947612;29;20031;-89
2022/08/06 09:15:22;;;;;;;1.33;0.80;;;21.30;99.60;;;-144.05;35.30;125687.94;4961074;28;20114;-88
2022/08/06 09:17:49;;;;;;;3.25;0.90;;;21.60;98.30;;;-144.05;33.64;125687.94;4942547;29;20027;-84
2022/08/06 09:20:15;;;;;;;3.25;0.80;;;22.10;94.90;;;-144.05;33.46;125687.94;4974217;28;20031;-88
2022/08/06 09:22:49;;;;;;;3.00;0.80;;;22.30;94.40;;;-144.05;33.79;125687.94;4962324;28;20098;-86
2022/08/06 09:25:47;;;;;;;3.30;0.70;;;22.70;95.30;;;-144.05;33.49;125687.94;4965835;29;20090;-85
2022/08/06 09:28:39;;;;;;;2.05;0.60;;;23.10;93.60;;;-144.05;32.83;125687.94;4943008;29;20027;-85
2022/08/06 09:31:19;;;;;;;3.80;0.77;;;23.60;92.30;;;-144.05;32.43;125687.94;4960121;29;20024;-86
2022/08/06 09:34:04;;;;;;;1.42;0.75;;;23.50;90.40;;;-144.05;32.43;125687.94;4951071;29;20536;-87
2022/08/06 09:36:47;;;;;;;5.20;0.70;;;23.00;88.90;;;-144.05;34.15;125687.94;4958851;29;20039;-87
2022/08/06 09:39:13;;;;;;;1.70;0.80;;;22.50;91.60;;;-144.05;34.23;125687.94;4941011;29;20126;-88
2022/08/06 09:41:49;;;;;;;3.65;1.17;;;22.00;91.70;;;-144.05;35.07;125687.94;4942132;29;20168;-86
2022/08/06 09:44:16;;;;;;;4.13;0.90;;;21.60;92.80;;;-144.05;34.13;125687.94;4941109;29;20094;-87
2022/08/06 09:46:47;;;;;;;3.65;1.50;;;21.70;91.70;;;-144.05;34.27;125687.94;4940578;29;20030;-87
2022/08/06 09:49:15;;;;;;;3.72;2.00;;;21.70;92.70;;;-144.05;33.58;125687.94;4939772;29;20055;-88
2022/08/06 09:51:42;;;;;;;3.55;2.25;;;22.00;91.30;;;-144.05;33.94;125687.94;4939786;29;20094;-87
2022/08/06 09:54:15;;;;;;;3.47;1.88;;;21.80;91.40;;;-144.05;34.69;125687.94;4940737;29;20062;-89
2022/08/06 09:56:43;;;;;;;4.00;2.00;;;21.80;92.00;;;-144.05;34.11;125687.94;4940313;29;20034;-86
2022/08/06 09:59:12;;;;;;;3.03;2.00;;;21.70;90.70;;;-144.05;34.89;125687.94;4942845;29;20472;-87
2022/08/06 10:01:45;;;;;;;3.63;2.40;;;21.60;92.10;;;-144.05;34.83;125687.94;4943428;29;20102;-88
2022/08/06 10:04:33;;;;;;;4.40;2.58;;;21.20;92.10;;;-144.05;35.18;125687.94;4945377;29;20028;-88
2022/08/06 10:07:03;;;;;;;4.55;2.63;;;20.70;92.10;;;-144.05;36.30;125687.94;4957194;28;20093;-87
2022/08/06 10:09:29;;;;;;;4.35;2.20;;;20.40;94.50;;;-144.05;36.43;125687.94;4940868;29;20063;-88
2022/08/06 10:11:55;;;;;;;4.32;1.73;;;20.50;94.80;;;-144.05;36.04;125687.94;4961765;28;20031;-87
2022/08/06 10:14:33;;;;;;;2.50;1.52;;;20.40;95.20;;;-144.05;36.29;125687.94;4944767;29;20027;-86
2022/08/06 10:17:21;;;;;;;4.90;1.55;;;20.30;95.10;;;-144.05;36.28;125687.94;4945296;29;20039;-85
2022/08/06 10:20:13;;;;;;;4.18;2.47;;;20.10;94.90;;;-144.05;36.65;125687.94;4948121;29;20032;-86
2022/08/06 10:22:54;;;;;;;5.05;3.42;;;19.90;95.30;;;-144.05;36.33;125687.94;4946036;29;20031;-83
2022/08/06 10:25:23;;;;;;;3.55;1.67;;;19.70;95.10;;;-144.05;35.83;125687.94;4945994;29;20494;-84
2022/08/06 10:27:54;;;;;;;1.58;0.93;;;20.00;94.00;;;-144.05;34.03;125687.94;4944062;29;20099;-86
2022/08/06 10:30:21;;;;;;;0.50;0.40;;;20.80;92.20;;;-144.05;31.89;125687.94;4943885;29;20058;-84
2022/08/06 10:33:06;;;;;;;1.35;0.75;;;21.70;86.20;;;-144.05;31.53;125687.94;4942349;29;20028;-88
2022/08/06 10:35:36;;;;;;;1.85;0.68;;;22.50;85.70;;;-144.05;31.77;125687.94;4941471;29;20114;-86